Time;durP1;ratioP1;P1;durP2;ratioP2;P2;SDS_P1;SDS_P2;PMS_P1;PMS_P2;Temp;Humidity;BMP_temperature;BMP_pressure;BME280_temperature;BME280_humidity;BME280_pressure;Samples;Min_cycle;Max_cycle;Signal;HPM_P1;HPM_P2
2022/07/01 00:02:00;;;;;;;9.30;8.50;;;20.50;27.50;;;;;;5045785;28;20466;-52
2022/07/01 00:04:27;;;;;;;8.47;7.80;;;20.50;26.10;;;;;;5047318;28;21009;-52
2022/07/01 00:06:54;;;;;;;8.93;8.20;;;20.50;25.60;;;;;;5048039;28;20462;-51
2022/07/01 00:09:20;;;;;;;9.77;8.20;;;20.50;24.50;;;;;;5046058;28;20461;-51
2022/07/01 00:11:47;;;;;;;9.10;8.40;;;20.40;22.50;;;;;;5048166;28;20462;-51
2022/07/01 00:14:14;;;;;;;9.30;8.40;;;20.40;20.50;;;;;;5049497;28;20461;-51
2022/07/01 00:16:40;;;;;;;9.40;8.50;;;20.40;81.20;;;;;;5042747;28;20462;-52
2022/07/01 00:19:09;;;;;;;8.93;8.23;;;20.40;88.90;;;;;;5050791;28;20479;-52
2022/07/01 00:21:36;;;;;;;10.13;9.10;;;20.30;99.90;;;;;;5048496;28;20583;-52
2022/07/01 00:24:03;;;;;;;8.97;8.17;;;20.30;99.90;;;;;;5047631;28;20804;-52
2022/07/01 00:26:29;;;;;;;9.23;8.53;;;20.30;99.90;;;;;;5049887;28;20481;-52
2022/07/01 00:28:56;;;;;;;8.00;7.40;;;20.30;99.90;;;;;;5053568;28;20485;-51
2022/07/01 00:31:22;;;;;;;10.00;9.10;;;20.30;99.90;;;;;;5046823;28;20457;-50
2022/07/01 00:33:49;;;;;;;8.20;7.60;;;20.30;99.90;;;;;;5047342;28;20465;-52
2022/07/01 00:36:17;;;;;;;8.83;8.03;;;20.20;99.90;;;;;;5047493;28;20511;-51
2022/07/01 00:38:44;;;;;;;9.27;8.43;;;20.30;99.90;;;;;;5046514;28;20994;-51
2022/07/01 00:41:10;;;;;;;9.60;8.80;;;20.20;99.90;;;;;;5051424;28;20495;-52
2022/07/01 00:43:38;;;;;;;9.40;8.50;;;20.20;99.90;;;;;;5048647;28;20520;-52
2022/07/01 00:46:05;;;;;;;8.90;8.10;;;20.20;99.90;;;;;;5053042;28;20485;-52
2022/07/01 00:48:33;;;;;;;9.10;8.20;;;20.10;99.90;;;;;;5047032;28;20482;-52
2022/07/01 00:51:00;;;;;;;9.23;8.33;;;20.10;99.90;;;;;;5052539;28;20470;-50
2022/07/01 00:53:29;;;;;;;9.57;8.73;;;20.10;99.90;;;;;;5053544;28;20981;-52
2022/07/01 00:55:56;;;;;;;9.37;8.57;;;20.10;99.90;;;;;;5053031;28;20456;-53
2022/07/01 00:58:23;;;;;;;10.50;9.57;;;20.10;99.90;;;;;;5050013;28;20887;-52
2022/07/01 01:00:49;;;;;;;9.83;8.87;;;20.10;99.90;;;;;;5045767;28;21029;-51
2022/07/01 01:03:16;;;;;;;9.00;8.20;;;20.00;99.90;;;;;;5047267;28;20516;-52
2022/07/01 01:05:43;;;;;;;10.77;9.90;;;20.10;99.90;;;;;;5052154;28;20979;-52
2022/07/01 01:08:10;;;;;;;11.80;9.60;;;20.00;99.90;;;;;;5049606;28;20518;-51
2022/07/01 01:10:38;;;;;;;12.80;9.60;;;20.00;99.90;;;;;;5056408;28;20523;-52
2022/07/01 01:13:05;;;;;;;11.10;9.60;;;20.00;99.90;;;;;;5047050;28;20461;-52
2022/07/01 01:15:32;;;;;;;9.70;9.00;;;20.00;99.90;;;;;;5051984;28;20458;-53
2022/07/01 01:17:59;;;;;;;12.73;10.17;;;20.00;99.90;;;;;;5051376;28;20461;-52
2022/07/01 01:20:27;;;;;;;9.70;8.77;;;20.00;99.90;;;;;;5054965;28;20468;-52
2022/07/01 01:22:55;;;;;;;10.30;9.13;;;20.00;99.90;;;;;;5046093;28;20947;-52
2022/07/01 01:25:21;;;;;;;11.03;9.37;;;20.00;99.90;;;;;;5050816;28;20481;-53
2022/07/01 01:27:48;;;;;;;9.53;8.83;;;20.00;99.90;;;;;;5046897;28;20483;-52
2022/07/01 01:30:15;;;;;;;9.43;8.70;;;20.00;99.90;;;;;;5048060;28;20494;-51
2022/07/01 01:32:42;;;;;;;9.40;8.60;;;20.00;99.90;;;;;;5051448;28;20966;-53
2022/07/01 01:35:09;;;;;;;8.93;8.30;;;19.90;99.90;;;;;;5045472;28;20515;-53
2022/07/01 01:37:36;;;;;;;9.60;8.73;;;19.90;99.90;;;;;;5051894;28;20539;-53
2022/07/01 01:40:05;;;;;;;10.30;9.33;;;19.90;99.90;;;;;;5043519;28;20467;-52
2022/07/01 01:42:32;;;;;;;11.17;9.90;;;19.90;99.90;;;;;;5045698;28;20457;-52
2022/07/01 01:44:58;;;;;;;10.23;9.30;;;19.90;99.90;;;;;;5053553;28;20536;-52
2022/07/01 01:47:25;;;;;;;10.77;9.87;;;19.90;99.90;;;;;;5051533;28;20481;-53
2022/07/01 01:49:52;;;;;;;11.40;10.30;;;19.80;99.90;;;;;;5055035;28;20462;-53
2022/07/01 01:52:18;;;;;;;11.37;10.23;;;19.80;99.90;;;;;;5039072;28;20521;-52
2022/07/01 01:54:46;;;;;;;11.10;10.20;;;19.80;99.90;;;;;;5050629;28;20461;-52
2022/07/01 01:57:14;;;;;;;11.80;10.60;;;19.80;99.90;;;;;;5060384;28;21194;-52
2022/07/01 01:59:41;;;;;;;12.13;11.03;;;19.80;99.90;;;;;;5048262;28;20466;-53
2022/07/01 02:02:08;;;;;;;10.70;9.70;;;19.70;99.90;;;;;;5045044;28;20462;-52
2022/07/01 02:04:35;;;;;;;12.50;11.40;;;19.70;99.90;;;;;;5050059;28;20519;-52
2022/07/01 02:07:01;;;;;;;12.00;10.90;;;19.70;99.90;;;;;;5049835;28;20899;-52
2022/07/01 02:09:29;;;;;;;11.97;10.77;;;19.70;99.90;;;;;;5045241;28;20458;-52
2022/07/01 02:11:55;;;;;;;11.30;10.20;;;19.70;99.90;;;;;;5050513;28;20474;-52
2022/07/01 02:14:23;;;;;;;14.07;10.60;;;19.70;99.90;;;;;;5046305;28;20454;-52
2022/07/01 02:16:50;;;;;;;12.50;11.30;;;19.60;99.90;;;;;;5045372;28;20497;-52
2022/07/01 02:19:16;;;;;;;11.47;10.40;;;19.60;99.90;;;;;;5051176;28;20861;-52
2022/07/01 02:21:43;;;;;;;12.60;11.50;;;19.60;99.90;;;;;;5050912;28;20462;-52
2022/07/01 02:24:10;;;;;;;12.30;11.30;;;19.60;99.90;;;;;;5049097;28;20964;-52
2022/07/01 02:26:36;;;;;;;12.50;11.40;;;19.60;99.90;;;;;;5048792;28;20485;-52
2022/07/01 02:29:04;;;;;;;12.20;11.10;;;19.60;99.90;;;;;;5057150;28;20538;-52
2022/07/01 02:31:32;;;;;;;12.97;11.67;;;19.50;99.90;;;;;;5048032;28;20531;-52
2022/07/01 02:33:58;;;;;;;12.33;11.10;;;19.50;99.90;;;;;;5049962;28;20559;-52
2022/07/01 02:36:25;;;;;;;13.30;12.10;;;19.50;99.90;;;;;;5053792;28;20524;-52
2022/07/01 02:38:52;;;;;;;12.13;11.00;;;19.50;99.90;;;;;;5050195;28;20477;-52
2022/07/01 02:41:18;;;;;;;12.60;11.53;;;19.40;99.90;;;;;;5041722;28;20875;-53
2022/07/01 02:43:45;;;;;;;12.90;11.87;;;19.40;99.90;;;;;;5046099;28;20461;-52
2022/07/01 02:46:11;;;;;;;13.97;12.70;;;19.40;99.90;;;;;;5048484;28;20486;-51
2022/07/01 02:48:39;;;;;;;11.90;10.90;;;19.30;99.90;;;;;;5049122;28;20481;-51
2022/07/01 02:51:06;;;;;;;18.73;12.17;;;19.30;99.90;;;;;;5052506;28;21040;-51
2022/07/01 02:53:33;;;;;;;12.70;11.60;;;19.30;99.90;;;;;;5046718;28;20462;-52
2022/07/01 02:55:59;;;;;;;13.27;12.00;;;19.30;99.90;;;;;;5049593;28;20466;-53
2022/07/01 02:58:26;;;;;;;11.70;10.80;;;19.30;99.90;;;;;;5047423;28;20975;-52
2022/07/01 03:00:53;;;;;;;15.50;13.90;;;19.30;99.90;;;;;;5047480;28;20473;-52
2022/07/01 03:03:20;;;;;;;13.90;12.53;;;19.40;99.90;;;;;;5046053;28;20464;-52
2022/07/01 03:05:49;;;;;;;14.03;12.80;;;19.30;99.90;;;;;;5049109;28;20474;-53
2022/07/01 03:08:15;;;;;;;14.20;12.90;;;19.30;99.90;;;;;;5049225;28;20478;-53
2022/07/01 03:10:42;;;;;;;16.43;13.93;;;19.30;99.90;;;;;;5051297;28;20457;-50
2022/07/01 03:13:08;;;;;;;13.73;12.37;;;19.30;99.90;;;;;;5048230;28;20881;-52
2022/07/01 03:15:35;;;;;;;18.63;12.30;;;19.30;99.90;;;;;;5049925;28;20454;-53
2022/07/01 03:18:02;;;;;;;14.57;13.13;;;19.40;99.90;;;;;;5052319;28;20481;-52
2022/07/01 03:20:28;;;;;;;14.70;13.30;;;19.40;99.90;;;;;;5050149;28;20470;-56
2022/07/01 03:22:56;;;;;;;15.93;14.10;;;19.40;99.90;;;;;;5048697;28;20559;-52
2022/07/01 03:25:23;;;;;;;15.57;13.97;;;19.50;99.90;;;;;;5050126;28;20465;-53
2022/07/01 03:27:50;;;;;;;14.43;13.10;;;19.40;99.90;;;;;;5049624;28;20513;-52
2022/07/01 03:30:17;;;;;;;16.53;14.93;;;19.50;99.90;;;;;;5049350;28;20947;-52
2022/07/01 03:32:44;;;;;;;20.37;14.20;;;19.50;99.90;;;;;;5049788;28;20458;-52
2022/07/01 03:37:57;;;;;;;15.30;13.13;;;19.50;99.90;;;;;;5047800;28;20523;-53
2022/07/01 03:40:23;;;;;;;17.10;15.20;;;19.50;99.90;;;;;;5050519;28;20873;-52
2022/07/01 03:42:50;;;;;;;15.87;14.47;;;19.60;99.90;;;;;;5049306;28;20466;-52
2022/07/01 03:45:17;;;;;;;15.47;13.83;;;19.60;99.90;;;;;;5046963;28;20519;-52
2022/07/01 03:47:47;;;;;;;16.90;14.40;;;19.60;99.90;;;;;;5047364;28;20477;-52
2022/07/01 03:50:14;;;;;;;15.30;13.63;;;19.70;99.90;;;;;;5045838;28;20485;-52
2022/07/01 03:52:41;;;;;;;16.87;15.17;;;19.70;99.90;;;;;;5040945;28;20523;-51
2022/07/01 03:55:09;;;;;;;18.03;16.23;;;19.70;99.90;;;;;;5044246;28;20959;-51
2022/07/01 03:57:36;;;;;;;17.03;15.50;;;19.80;99.90;;;;;;5050045;28;21006;-51
2022/07/01 04:00:04;;;;;;;15.70;14.20;;;19.80;99.90;;;;;;5044433;28;21216;-51
2022/07/01 04:02:31;;;;;;;17.00;15.30;;;19.90;99.90;;;;;;5036885;28;20455;-51
2022/07/01 04:04:58;;;;;;;18.23;16.30;;;20.00;99.90;;;;;;5048338;28;21286;-51
2022/07/01 04:07:25;;;;;;;17.67;16.07;;;20.00;99.90;;;;;;5046660;28;20564;-52
2022/07/01 04:09:53;;;;;;;17.47;15.67;;;20.10;99.90;;;;;;5048489;28;20462;-52
2022/07/01 04:12:21;;;;;;;19.07;16.20;;;20.10;99.90;;;;;;5047133;28;20458;-51
2022/07/01 04:14:48;;;;;;;18.13;16.10;;;20.20;99.90;;;;;;5054060;28;20526;-52
2022/07/01 04:17:15;;;;;;;19.47;17.37;;;20.30;99.90;;;;;;5057832;28;20471;-51
2022/07/01 04:19:42;;;;;;;19.13;17.30;;;20.40;99.90;;;;;;5055286;28;20454;-51
2022/07/01 04:25:08;;;;;;;18.90;17.00;;;20.50;99.90;;;;;;4991136;28;20998;-51
2022/07/01 04:27:36;;;;;;;18.37;16.40;;;20.60;99.90;;;;;;4992602;28;20492;-52
2022/07/01 04:30:03;;;;;;;20.50;16.77;;;20.60;99.90;;;;;;5023153;28;20529;-51
2022/07/01 04:32:31;;;;;;;20.93;16.97;;;20.70;99.90;;;;;;5054176;28;20466;-53
2022/07/01 04:34:57;;;;;;;19.57;17.50;;;20.70;99.90;;;;;;5051611;28;20826;-52
2022/07/01 04:37:24;;;;;;;19.33;17.27;;;20.80;99.90;;;;;;5051491;28;20497;-52
2022/07/01 04:39:51;;;;;;;19.37;17.47;;;20.90;99.90;;;;;;5060919;28;20531;-53
2022/07/01 04:42:20;;;;;;;19.90;18.03;;;20.80;99.90;;;;;;5048934;28;20453;-52
2022/07/01 04:44:48;;;;;;;21.33;16.87;;;20.90;99.90;;;;;;5052219;28;20461;-53
2022/07/01 04:47:14;;;;;;;19.33;17.43;;;21.00;99.90;;;;;;5053100;28;20827;-52
2022/07/01 04:49:41;;;;;;;19.93;18.00;;;21.00;99.90;;;;;;5051996;28;20539;-51
2022/07/01 04:52:08;;;;;;;28.90;18.10;;;21.10;99.90;;;;;;5051360;28;20465;-53
2022/07/01 04:54:35;;;;;;;20.97;18.77;;;21.10;99.90;;;;;;5053214;28;20466;-52
2022/07/01 04:57:02;;;;;;;19.23;17.23;;;21.20;99.90;;;;;;5052830;28;20500;-53
2022/07/01 04:59:29;;;;;;;19.60;17.77;;;21.20;99.90;;;;;;5048583;28;20535;-52
2022/07/01 05:01:58;;;;;;;20.77;18.73;;;21.30;99.90;;;;;;5052391;28;20468;-52
2022/07/01 05:04:26;;;;;;;20.13;17.97;;;21.40;99.90;;;;;;5053708;28;20481;-51
2022/07/01 05:06:52;;;;;;;22.43;19.50;;;21.50;99.90;;;;;;5047521;28;20474;-52
2022/07/01 05:09:19;;;;;;;23.77;19.37;;;21.60;99.90;;;;;;5053188;28;20467;-50
2022/07/01 05:11:46;;;;;;;21.80;19.57;;;21.60;99.90;;;;;;5060357;28;20903;-51
2022/07/01 05:14:12;;;;;;;22.77;20.60;;;21.70;99.90;;;;;;5049173;28;20899;-52
2022/07/01 05:16:39;;;;;;;22.20;19.90;;;21.80;99.90;;;;;;5049952;28;20461;-51
2022/07/01 05:21:57;;;;;;;20.97;18.83;;;21.90;99.90;;;;;;5047458;28;20623;-52
2022/07/01 05:24:23;;;;;;;20.60;18.17;;;21.90;99.90;;;;;;5052650;28;20876;-52
2022/07/01 05:26:50;;;;;;;21.53;19.33;;;22.10;99.90;;;;;;5050774;28;20509;-51
2022/07/01 05:29:17;;;;;;;21.27;19.00;;;22.20;99.90;;;;;;5045225;28;20997;-52
2022/07/01 05:31:44;;;;;;;22.13;19.37;;;22.30;99.90;;;;;;5046349;28;21040;-52
2022/07/01 05:34:12;;;;;;;20.27;17.90;;;22.30;99.90;;;;;;5044394;28;20458;-51
2022/07/01 05:36:40;;;;;;;21.93;19.60;;;22.40;99.90;;;;;;5052042;28;20454;-51
2022/07/01 05:39:07;;;;;;;23.00;18.57;;;22.40;99.90;;;;;;5049489;28;20834;-51
2022/07/01 05:41:34;;;;;;;21.20;18.00;;;22.50;99.90;;;;;;5053132;28;20827;-51
2022/07/01 05:44:01;;;;;;;23.50;20.43;;;22.50;99.90;;;;;;5048034;28;21102;-52
2022/07/01 05:46:27;;;;;;;23.13;18.27;;;22.50;99.90;;;;;;5053382;28;20803;-51
2022/07/01 05:48:54;;;;;;;20.60;18.37;;;22.50;99.90;;;;;;5051769;28;20517;-51
2022/07/01 05:51:22;;;;;;;21.40;19.10;;;22.50;99.90;;;;;;5045757;28;20494;-50
2022/07/01 05:53:48;;;;;;;21.47;18.43;;;22.60;99.90;;;;;;5050008;28;20502;-50
2022/07/01 05:56:15;;;;;;;23.03;18.30;;;22.60;99.90;;;;;;5049000;28;20830;-50
2022/07/01 05:58:42;;;;;;;21.47;19.27;;;22.60;99.90;;;;;;5047710;28;20470;-50
2022/07/01 06:01:09;;;;;;;26.13;19.67;;;22.60;99.90;;;;;;5044344;28;20489;-49
2022/07/01 06:03:35;;;;;;;23.67;18.97;;;22.60;99.90;;;;;;5056369;28;20511;-51
2022/07/01 06:06:02;;;;;;;21.63;19.47;;;22.60;99.90;;;;;;5048357;28;20524;-50
2022/07/01 06:08:30;;;;;;;31.70;20.30;;;22.70;96.00;;;;;;5047402;28;20563;-51
2022/07/01 06:10:57;;;;;;;22.83;20.20;;;22.70;93.30;;;;;;5052644;28;20461;-51
2022/07/01 06:13:24;;;;;;;21.50;19.23;;;22.70;94.90;;;;;;5045321;28;20836;-51
2022/07/01 06:15:50;;;;;;;21.73;18.90;;;22.80;24.30;;;;;;5052409;28;20457;-50
2022/07/01 06:18:17;;;;;;;20.87;18.87;;;22.80;31.70;;;;;;5047021;28;20482;-49
2022/07/01 06:20:44;;;;;;;21.63;19.53;;;22.80;33.10;;;;;;5045984;28;20537;-51
2022/07/01 06:23:10;;;;;;;21.77;19.40;;;22.90;40.20;;;;;;5047005;28;20462;-51
2022/07/01 06:25:38;;;;;;;21.67;19.37;;;22.90;41.00;;;;;;5045358;28;20856;-50
2022/07/01 06:28:05;;;;;;;23.30;18.80;;;22.90;47.60;;;;;;5046187;28;20482;-51
2022/07/01 06:30:32;;;;;;;23.30;20.50;;;22.90;49.30;;;;;;5052766;28;20458;-50
2022/07/01 06:32:58;;;;;;;23.60;21.07;;;22.80;48.70;;;;;;5057157;28;20523;-50
2022/07/01 06:35:25;;;;;;;22.63;18.53;;;22.80;52.10;;;;;;5050124;28;20533;-52
2022/07/01 06:37:52;;;;;;;20.97;18.97;;;22.80;51.20;;;;;;5055627;28;20548;-51
2022/07/01 06:40:18;;;;;;;22.23;19.50;;;22.80;49.50;;;;;;5047057;28;20933;-51
2022/07/01 06:42:47;;;;;;;21.60;19.30;;;22.80;41.40;;;;;;5046002;28;20458;-50
2022/07/01 06:45:13;;;;;;;21.73;19.53;;;22.80;42.00;;;;;;5046564;28;21001;-50
2022/07/01 06:47:40;;;;;;;21.00;19.00;;;22.80;43.30;;;;;;5048468;28;20509;-51
2022/07/01 06:50:08;;;;;;;21.03;18.90;;;22.80;48.40;;;;;;5049492;28;20944;-50
2022/07/01 06:52:35;;;;;;;20.80;18.70;;;22.90;49.30;;;;;;5045544;28;20951;-51
2022/07/01 06:55:01;;;;;;;30.73;19.63;;;22.90;50.20;;;;;;5042895;28;20461;-51
2022/07/01 06:57:29;;;;;;;20.70;18.57;;;23.00;57.00;;;;;;5050255;28;20880;-52
2022/07/01 06:59:56;;;;;;;22.40;19.93;;;23.00;60.10;;;;;;5049160;28;20457;-52
2022/07/01 07:02:23;;;;;;;22.43;19.83;;;23.00;67.70;;;;;;5045976;28;20493;-52
2022/07/01 07:04:50;;;;;;;24.53;19.00;;;23.10;73.80;;;;;;5050155;28;20458;-51
2022/07/01 07:07:16;;;;;;;26.50;20.20;;;23.10;73.10;;;;;;5051491;28;20567;-52
2022/07/01 07:09:43;;;;;;;19.80;17.77;;;23.10;89.20;;;;;;5049949;28;20468;-52
2022/07/01 07:12:10;;;;;;;22.03;18.43;;;23.20;98.40;;;;;;5047978;28;20468;-52
2022/07/01 07:14:37;;;;;;;19.43;17.63;;;23.20;99.90;;;;;;5043734;28;20563;-54
2022/07/01 07:17:05;;;;;;;20.73;17.33;;;23.20;99.90;;;;;;5045975;28;20539;-53
2022/07/01 07:19:31;;;;;;;24.63;16.97;;;23.20;98.00;;;;;;5045909;28;20498;-52
2022/07/01 07:21:58;;;;;;;20.67;15.27;;;23.20;99.90;;;;;;5037312;28;20549;-54
2022/07/01 07:24:25;;;;;;;16.33;14.73;;;23.20;99.90;;;;;;5043427;28;20500;-52
2022/07/01 07:26:51;;;;;;;16.10;14.40;;;23.20;99.90;;;;;;5042655;28;21040;-53
2022/07/01 07:29:18;;;;;;;26.70;13.10;;;23.30;99.90;;;;;;5045753;28;20551;-52
2022/07/01 07:31:44;;;;;;;16.80;15.10;;;23.20;99.90;;;;;;5045077;28;20977;-53
2022/07/01 07:34:12;;;;;;;14.53;13.23;;;23.30;99.90;;;;;;5044270;28;20498;-52
2022/07/01 07:36:39;;;;;;;19.40;13.93;;;23.40;99.90;;;;;;5045927;28;20489;-52
2022/07/01 07:39:05;;;;;;;15.93;13.37;;;23.50;99.90;;;;;;5049080;28;20507;-53
2022/07/01 07:41:32;;;;;;;15.33;13.70;;;23.50;99.90;;;;;;5040858;28;20498;-52
2022/07/01 07:43:59;;;;;;;15.20;12.73;;;23.50;99.90;;;;;;5043091;28;20524;-52
2022/07/01 07:46:25;;;;;;;17.73;12.53;;;23.50;99.90;;;;;;5042022;28;20485;-52
2022/07/01 07:48:52;;;;;;;19.27;12.57;;;23.50;99.90;;;;;;5044582;28;20521;-52
2022/07/01 07:51:22;;;;;;;13.50;12.20;;;23.50;99.90;;;;;;5057331;28;20928;-52
2022/07/01 07:53:49;;;;;;;15.80;11.80;;;23.60;99.90;;;;;;5036563;28;20997;-52
2022/07/01 07:56:16;;;;;;;16.20;12.80;;;23.60;99.90;;;;;;5050164;28;20789;-53
2022/07/01 07:58:43;;;;;;;12.83;11.53;;;23.60;99.90;;;;;;5045705;28;20887;-52
2022/07/01 08:01:10;;;;;;;12.97;10.77;;;23.70;99.90;;;;;;5042495;28;20879;-53
2022/07/01 08:03:37;;;;;;;11.80;10.60;;;23.80;99.90;;;;;;5048847;28;20461;-55
2022/07/01 08:06:04;;;;;;;12.20;11.03;;;23.80;99.90;;;;;;5045385;28;20497;-52
2022/07/01 08:08:32;;;;;;;12.10;11.03;;;23.90;99.90;;;;;;5042285;28;20485;-53
2022/07/01 08:10:59;;;;;;;11.10;10.00;;;24.00;99.90;;;;;;5046042;28;20547;-52
2022/07/01 08:13:26;;;;;;;11.13;10.03;;;24.10;99.90;;;;;;5043517;28;20462;-52
2022/07/01 08:15:52;;;;;;;15.93;10.77;;;24.20;99.90;;;;;;5042483;28;20519;-53
2022/07/01 08:18:19;;;;;;;13.13;10.10;;;24.30;99.90;;;;;;5047428;28;20529;-52
2022/07/01 08:20:46;;;;;;;12.30;11.07;;;24.40;99.90;;;;;;5041686;28;20457;-52
2022/07/01 08:23:13;;;;;;;11.47;10.50;;;24.30;99.90;;;;;;5044839;28;20488;-52
2022/07/01 08:25:41;;;;;;;11.80;10.70;;;24.30;99.90;;;;;;5045663;28;20503;-52
2022/07/01 08:28:08;;;;;;;11.47;10.00;;;24.30;99.90;;;;;;5046843;28;20586;-53
2022/07/01 08:30:34;;;;;;;14.83;10.60;;;24.20;99.90;;;;;;5024505;28;20539;-51
2022/07/01 08:33:01;;;;;;;12.80;11.60;;;24.30;99.90;;;;;;5043456;28;20470;-53
2022/07/01 08:35:28;;;;;;;12.83;11.63;;;24.40;99.90;;;;;;5046631;28;20458;-53
2022/07/01 08:37:56;;;;;;;23.00;12.17;;;24.40;99.90;;;;;;5039230;28;20473;-52
2022/07/01 08:40:25;;;;;;;13.50;12.27;;;24.30;99.90;;;;;;5047093;28;20576;-53
2022/07/01 08:42:56;;;;;;;15.53;12.87;;;24.40;99.90;;;;;;5047563;28;20452;-53
2022/07/01 08:45:24;;;;;;;14.07;12.63;;;24.30;99.90;;;;;;5047393;28;20481;-53
2022/07/01 08:47:51;;;;;;;14.93;13.53;;;24.40;99.90;;;;;;5040643;28;20573;-53
2022/07/01 08:50:18;;;;;;;23.03;14.20;;;24.40;99.90;;;;;;5049456;28;20958;-53
2022/07/01 08:52:45;;;;;;;13.57;12.20;;;24.50;99.90;;;;;;5041617;28;20466;-53
2022/07/01 08:55:12;;;;;;;19.27;12.13;;;24.60;99.90;;;;;;5041417;28;20465;-53
2022/07/01 08:57:38;;;;;;;18.93;15.50;;;24.80;99.90;;;;;;5049728;28;20474;-53
2022/07/01 09:00:09;;;;;;;15.50;13.80;;;24.80;99.90;;;;;;5049984;28;20987;-53
2022/07/01 09:02:53;;;;;;;18.77;14.87;;;24.90;99.90;;;;;;5055575;28;20908;-52
2022/07/01 09:05:20;;;;;;;14.10;12.83;;;25.00;99.90;;;;;;5044319;28;20459;-57
2022/07/01 09:07:48;;;;;;;15.13;13.63;;;25.00;99.90;;;;;;5050021;28;20568;-53
2022/07/01 09:10:17;;;;;;;16.63;14.17;;;25.00;99.90;;;;;;5060684;28;20992;-54
2022/07/01 09:12:44;;;;;;;14.00;12.70;;;25.00;99.90;;;;;;5064725;22;21043;-53
2022/07/01 09:15:24;;;;;;;18.60;13.07;;;25.10;99.90;;;;;;5049516;28;20536;-53
2022/07/01 09:17:51;;;;;;;13.20;11.90;;;25.10;99.90;;;;;;5047787;28;20454;-52
2022/07/01 09:20:29;;;;;;;12.10;11.00;;;25.20;99.90;;;;;;5048196;28;20524;-52
2022/07/01 09:23:00;;;;;;;10.50;9.50;;;25.10;99.90;;;;;;5060604;28;20570;-54
2022/07/01 09:25:29;;;;;;;8.83;8.10;;;25.00;99.90;;;;;;5046136;28;20905;-54
2022/07/01 09:28:06;;;;;;;19.27;7.67;;;24.90;29.90;;;;;;5051986;28;21012;-54
2022/07/01 09:30:34;;;;;;;7.60;6.80;;;24.70;25.10;;;;;;5050947;28;20493;-51
2022/07/01 09:33:09;;;;;;;7.27;6.70;;;24.60;24.40;;;;;;5049463;28;21103;-52
2022/07/01 09:35:36;;;;;;;9.40;6.43;;;24.50;39.90;;;;;;5046074;28;20551;-52
2022/07/01 09:38:03;;;;;;;8.73;4.30;;;24.40;34.00;;;;;;5042331;28;20458;-52
2022/07/01 09:40:52;;;;;;;6.60;5.13;;;24.10;26.50;;;;;;5051705;28;20484;-51
2022/07/01 09:43:21;;;;;;;5.80;3.70;;;23.90;99.90;;;;;;5032601;28;20486;-52
2022/07/01 09:45:55;;;;;;;4.17;3.27;;;23.50;99.90;;;;;;5048035;28;20516;-53
2022/07/01 09:48:22;;;;;;;2.50;2.37;;;23.30;99.90;;;;;;5049255;28;20529;-53
2022/07/01 09:50:49;;;;;;;2.37;2.17;;;23.00;99.90;;;;;;5051504;28;20469;-51
2022/07/01 09:53:16;;;;;;;5.50;2.27;;;22.80;99.90;;;;;;5033848;28;20635;-53
2022/07/01 09:55:43;;;;;;;4.40;1.60;;;22.70;99.90;;;;;;5051640;28;20489;-51
2022/07/01 09:58:10;;;;;;;1.70;1.60;;;22.50;99.90;;;;;;5045541;28;20458;-51
2022/07/01 10:00:37;;;;;;;1.57;1.47;;;22.30;99.90;;;;;;5045664;28;20793;-53
2022/07/01 10:03:07;;;;;;;1.03;0.80;;;22.10;99.90;;;;;;5050629;28;20548;-53
2022/07/01 10:05:39;;;;;;;7.73;1.10;;;21.80;99.90;;;;;;5047960;28;20535;-52
2022/07/01 10:08:19;;;;;;;1.37;0.70;;;21.70;99.90;;;;;;5047749;28;20488;-52
2022/07/01 10:10:52;;;;;;;0.80;0.80;;;21.50;99.90;;;;;;5048848;28;21237;-51
2022/07/01 10:13:22;;;;;;;1.43;0.87;;;21.30;99.90;;;;;;5039932;28;20559;-52
2022/07/01 10:15:50;;;;;;;0.90;0.90;;;21.00;99.90;;;;;;5045422;28;20457;-53
2022/07/01 10:18:22;;;;;;;1.47;1.37;;;20.90;99.90;;;;;;5050782;28;20943;-53
2022/07/01 10:20:50;;;;;;;3.43;1.27;;;20.80;99.90;;;;;;5048716;28;21033;-51
2022/07/01 10:23:20;;;;;;;1.10;1.00;;;20.70;99.90;;;;;;5044940;28;20543;-52
2022/07/01 10:25:47;;;;;;;1.17;1.10;;;20.70;99.90;;;;;;5050354;28;20458;-53
2022/07/01 10:28:16;;;;;;;2.17;1.37;;;20.70;99.90;;;;;;5053456;28;20522;-52
2022/07/01 10:30:50;;;;;;;1.60;1.50;;;20.80;99.90;;;;;;5060043;28;20466;-51
2022/07/01 10:33:30;;;;;;;1.60;1.50;;;20.80;99.90;;;;;;5055162;28;20501;-51
2022/07/01 10:36:04;;;;;;;3.13;1.47;;;20.80;99.90;;;;;;5047142;28;20453;-52
2022/07/01 10:38:31;;;;;;;1.73;1.57;;;20.80;99.90;;;;;;5040220;28;20454;-52
2022/07/01 10:41:09;;;;;;;1.83;1.73;;;20.90;99.90;;;;;;5054938;28;20500;-52
2022/07/01 10:43:40;;;;;;;7.33;1.80;;;20.70;99.90;;;;;;5051147;28;20509;-51
2022/07/01 10:46:06;;;;;;;2.10;2.00;;;20.60;99.90;;;;;;5051162;28;20469;-53
2022/07/01 10:48:35;;;;;;;6.50;1.80;;;20.60;99.90;;;;;;5045025;28;20509;-51
2022/07/01 10:51:02;;;;;;;1.63;1.53;;;20.40;99.90;;;;;;5045921;28;20544;-52
2022/07/01 10:53:46;;;;;;;2.07;1.97;;;20.40;99.90;;;;;;5047380;28;20462;-52
2022/07/01 10:56:17;;;;;;;2.10;2.00;;;20.30;99.90;;;;;;5050401;28;20462;-53
2022/07/01 10:58:44;;;;;;;2.30;2.20;;;20.20;99.90;;;;;;5051921;28;20989;-52
2022/07/01 11:01:11;;;;;;;2.03;1.93;;;20.10;99.90;;;;;;5051258;28;20946;-51
2022/07/01 11:03:39;;;;;;;2.10;2.00;;;20.00;95.90;;;;;;5050922;28;21196;-52
2022/07/01 11:06:06;;;;;;;1.53;1.43;;;20.00;89.90;;;;;;5049249;28;20465;-52
2022/07/01 11:08:33;;;;;;;1.30;1.17;;;19.80;91.00;;;;;;5054507;28;21010;-52
2022/07/01 11:11:03;;;;;;;8.23;1.40;;;19.60;84.60;;;;;;5049638;28;20490;-53
2022/07/01 11:13:31;;;;;;;1.90;1.47;;;19.50;68.30;;;;;;5041710;28;20492;-53
2022/07/01 11:15:57;;;;;;;2.77;1.30;;;19.40;68.70;;;;;;5048067;28;20531;-52
2022/07/01 11:18:24;;;;;;;1.17;1.07;;;19.40;64.70;;;;;;5053604;28;20462;-53
2022/07/01 11:20:52;;;;;;;1.07;1.00;;;19.30;57.10;;;;;;5053505;28;20458;-51
2022/07/01 11:23:22;;;;;;;1.13;1.00;;;19.20;50.60;;;;;;5047799;28;20511;-52
2022/07/01 11:25:49;;;;;;;1.70;1.10;;;19.10;43.30;;;;;;5050307;28;20544;-52
2022/07/01 11:28:16;;;;;;;2.20;1.00;;;19.10;35.50;;;;;;5046878;28;20493;-53
2022/07/01 11:30:42;;;;;;;1.10;0.97;;;19.00;27.40;;;;;;5046227;28;20462;-51
2022/07/01 11:33:10;;;;;;;1.10;0.80;;;18.90;99.90;;;;;;5043372;28;20482;-52
2022/07/01 11:41:11;;;;;;;1.63;1.10;;;18.60;99.90;;;;;;5043073;28;20511;-52
2022/07/01 11:43:39;;;;;;;2.00;1.17;;;18.50;99.90;;;;;;5041805;28;20545;-52
2022/07/01 11:46:07;;;;;;;1.33;1.00;;;18.40;99.90;;;;;;5047181;28;20458;-52
2022/07/01 11:48:37;;;;;;;1.57;1.17;;;18.40;99.90;;;;;;5049822;28;20478;-53
2022/07/01 11:51:09;;;;;;;2.00;0.83;;;18.40;99.90;;;;;;5044772;28;20493;-52
2022/07/01 11:53:38;;;;;;;1.33;0.80;;;18.30;99.90;;;;;;5041307;28;20482;-51
2022/07/01 11:56:05;;;;;;;1.73;0.90;;;18.30;99.90;;;;;;5045160;28;20490;-52
2022/07/01 11:58:46;;;;;;;2.20;1.10;;;18.30;99.90;;;;;;5046910;28;20493;-53
2022/07/01 12:01:24;;;;;;;1.07;0.97;;;18.20;99.90;;;;;;5048741;28;20531;-52
2022/07/01 12:03:51;;;;;;;3.43;1.07;;;18.10;99.90;;;;;;5050999;28;20465;-52
2022/07/01 12:06:19;;;;;;;6.40;1.20;;;18.10;99.90;;;;;;5047682;28;20442;-52
2022/07/01 12:08:48;;;;;;;2.50;1.00;;;18.00;99.90;;;;;;5039932;28;20457;-52
2022/07/01 12:11:16;;;;;;;1.30;1.00;;;17.80;99.90;;;;;;5041662;28;20880;-51
2022/07/01 12:13:45;;;;;;;1.43;1.33;;;17.90;99.90;;;;;;5045121;28;20571;-52
2022/07/01 12:16:13;;;;;;;1.30;1.20;;;17.90;93.10;;;;;;5045441;28;20963;-52
2022/07/01 12:18:40;;;;;;;1.30;1.20;;;18.00;89.10;;;;;;5047202;28;21029;-52
2022/07/01 12:21:06;;;;;;;2.20;2.00;;;18.00;78.80;;;;;;5046700;28;20494;-52
2022/07/01 12:23:36;;;;;;;2.90;1.63;;;18.00;63.60;;;;;;5040560;28;20473;-52
2022/07/01 12:26:05;;;;;;;1.80;1.70;;;18.00;61.60;;;;;;5046931;28;20975;-51
2022/07/01 12:28:34;;;;;;;1.70;1.60;;;18.00;55.80;;;;;;5042065;28;20465;-51
2022/07/01 12:31:02;;;;;;;1.80;1.70;;;18.00;53.40;;;;;;5046732;28;20465;-51
2022/07/01 12:33:29;;;;;;;2.10;1.90;;;17.90;62.20;;;;;;5038616;28;20531;-52
2022/07/01 12:35:56;;;;;;;2.13;2.03;;;17.80;62.40;;;;;;5051384;28;20465;-52
2022/07/01 12:38:23;;;;;;;3.10;2.20;;;17.90;47.50;;;;;;5050167;28;20464;-52
2022/07/01 12:40:49;;;;;;;2.70;2.53;;;18.00;59.40;;;;;;5039380;28;20493;-53
2022/07/01 12:43:30;;;;;;;4.97;2.47;;;18.10;55.00;;;;;;5052123;28;20571;-53
2022/07/01 12:45:58;;;;;;;2.97;2.87;;;18.10;53.30;;;;;;5051226;28;20458;-52
2022/07/01 12:48:25;;;;;;;2.83;2.70;;;18.10;48.00;;;;;;5042536;28;20458;-52
2022/07/01 12:50:54;;;;;;;2.50;2.40;;;18.10;56.00;;;;;;5051519;28;20488;-52
2022/07/01 12:53:22;;;;;;;2.67;2.57;;;18.10;56.90;;;;;;5052969;28;20495;-53